Terminal Aerodrome Forecast
Issued by NWS Austin/San Antonio, TX

Current Version | Previous Version | Text Only | Print | Product List | Glossary Off
Versions: 1 2 3 4 5 6 7 8 9 10 11 12 13 14 15 16 17 18 19 20 21 22 23

000
FTUS44 KEWX 191324 AAA
TAFSAT
TAF AMD
KSAT 191324Z 1913/2018 16010KT P6SM BKN010 OVC025
     FM191600 17015KT P6SM BKN040
     FM192300 14015KT P6SM BKN040
     FM200300 15012KT 5SM BR OVC009 PROB30 2008/2012 4SM -TSRA
      BKN009 OVC020CB=

USA.gov is the U.S. government's official web portal to all federal, state and local government web resources and services.